createdAt,value
2022-09-21T00:00:32.875Z,8.84
2022-09-21T00:05:41.024Z,8.88
2022-09-21T00:10:48.541Z,8.86
2022-09-21T00:15:56.733Z,8.85
2022-09-21T00:21:04.887Z,8.8
2022-09-21T00:26:12.839Z,8.75
2022-09-21T00:31:20.574Z,8.71
2022-09-21T00:36:28.523Z,8.62
2022-09-21T00:41:36.304Z,8.64
2022-09-21T00:46:59.503Z,8.7
2022-09-21T00:52:06.929Z,8.64
2022-09-21T00:57:14.363Z,8.49
2022-09-21T01:02:22.333Z,8.49
2022-09-21T01:07:29.592Z,8.47
2022-09-21T01:12:39.160Z,8.38
2022-09-21T01:19:36.238Z,8.28
2022-09-21T01:24:43.960Z,8.2
2022-09-21T01:29:51.704Z,8.14
2022-09-21T01:34:59.170Z,8.12
2022-09-21T01:40:07.482Z,8.05
2022-09-21T01:45:15.851Z,8.0
2022-09-21T01:50:23.655Z,7.94
2022-09-21T01:55:31.446Z,7.85
2022-09-21T02:00:39.294Z,7.73
2022-09-21T02:05:47.165Z,7.62
2022-09-21T02:10:55.941Z,7.48
2022-09-21T02:16:05.884Z,7.38
2022-09-21T02:21:13.405Z,7.36
2022-09-21T02:26:21.563Z,7.33
2022-09-21T02:31:29.525Z,7.27
2022-09-21T02:36:37.898Z,7.27
2022-09-21T02:41:45.262Z,7.24
2022-09-21T02:46:53.412Z,7.3
2022-09-21T02:52:00.933Z,7.28
2022-09-21T02:57:08.127Z,7.32
2022-09-21T03:02:15.994Z,7.32
2022-09-21T03:07:24.081Z,7.24
2022-09-21T03:12:32.846Z,7.22
2022-09-21T03:17:40.875Z,7.2
2022-09-21T03:22:48.545Z,7.21
2022-09-21T03:27:55.733Z,7.14
2022-09-21T03:33:03.585Z,7.07
2022-09-21T03:38:11.383Z,7.02
2022-09-21T03:43:19.225Z,7.04
2022-09-21T03:48:27.136Z,7.04
2022-09-21T03:53:34.743Z,7.02
2022-09-21T03:58:42.097Z,7.03
2022-09-21T04:03:49.370Z,7.1
2022-09-21T04:08:56.587Z,7.22
2022-09-21T04:14:04.434Z,7.27
2022-09-21T04:19:12.694Z,7.29
2022-09-21T04:24:20.152Z,7.29
2022-09-21T04:29:28.015Z,7.24
2022-09-21T04:34:36.285Z,7.16
2022-09-21T04:39:44.904Z,7.07
2022-09-21T04:44:52.092Z,7.0
2022-09-21T04:49:58.650Z,6.94
2022-09-21T04:55:06.743Z,6.9
2022-09-21T05:00:13.957Z,6.92
2022-09-21T05:05:22.058Z,6.96
2022-09-21T05:10:30.518Z,7.1
2022-09-21T05:15:38.124Z,7.2
2022-09-21T05:20:45.054Z,7.2
2022-09-21T05:25:52.879Z,7.14
2022-09-21T05:31:01.233Z,7.11
2022-09-21T05:36:09.610Z,7.1
2022-09-21T05:41:17.927Z,7.1
2022-09-21T05:46:25.588Z,7.14
2022-09-21T05:51:33.424Z,7.22
2022-09-21T05:56:42.400Z,7.78
2022-09-21T06:01:49.867Z,8.6
2022-09-21T06:06:58.696Z,9.34
2022-09-21T06:12:06.456Z,9.07
2022-09-21T06:17:17.941Z,9.58
2022-09-21T06:22:24.891Z,10.04
2022-09-21T06:27:33.658Z,9.96
2022-09-21T06:32:40.637Z,9.88
2022-09-21T06:37:49.904Z,9.9
2022-09-21T06:42:57.249Z,9.99
2022-09-21T06:48:05.506Z,10.26
2022-09-21T06:53:13.217Z,10.43
2022-09-21T06:58:22.195Z,10.58
2022-09-21T07:03:28.939Z,10.86
2022-09-21T07:08:36.161Z,10.92
2022-09-21T07:13:45.531Z,10.84
2022-09-21T07:18:53.663Z,10.61
2022-09-21T07:29:12.461Z,10.42
2022-09-21T07:34:20.188Z,10.56
2022-09-21T07:39:28.550Z,10.9
2022-09-21T07:44:36.889Z,11.57
2022-09-21T07:49:44.457Z,11.78
2022-09-21T07:54:51.782Z,11.59
2022-09-21T07:59:58.927Z,11.74
2022-09-21T08:05:06.183Z,11.85
2022-09-21T08:10:14.637Z,12.05
2022-09-21T08:15:23.510Z,12.2
2022-09-21T08:20:31.122Z,12.17
2022-09-21T08:25:40.306Z,12.14
2022-09-21T08:30:47.429Z,12.07
2022-09-21T08:35:55.146Z,12.1
2022-09-21T08:41:03.480Z,12.17
2022-09-21T08:46:12.546Z,12.48
2022-09-21T08:51:20.897Z,12.49
2022-09-21T08:56:28.776Z,12.59
2022-09-21T09:01:36.454Z,12.78
2022-09-21T09:06:44.098Z,12.9
2022-09-21T09:11:52.362Z,12.84
2022-09-21T09:16:59.480Z,12.78
2022-09-21T09:22:06.808Z,12.84
2022-09-21T09:27:13.543Z,13.0
2022-09-21T09:32:21.321Z,13.08
2022-09-21T09:37:28.733Z,13.29
2022-09-21T09:42:36.440Z,13.24
2022-09-21T09:47:44.305Z,13.2
2022-09-21T09:52:52.062Z,13.14
2022-09-21T09:57:59.405Z,13.08
2022-09-21T10:03:05.908Z,13.2
2022-09-21T10:08:13.654Z,13.24
2022-09-21T10:13:22.606Z,13.4
2022-09-21T10:18:30.003Z,13.36
2022-09-21T10:23:37.886Z,13.2
2022-09-21T10:28:45.694Z,13.26
2022-09-21T10:33:54.151Z,13.65
2022-09-21T10:39:02.097Z,14.21
2022-09-21T10:44:08.904Z,14.5
2022-09-21T10:49:17.424Z,16.26
2022-09-21T10:54:26.612Z,16.32
2022-09-21T10:59:33.962Z,15.89
2022-09-21T11:04:41.874Z,15.35
2022-09-21T11:09:49.890Z,14.97
2022-09-21T11:14:57.458Z,15.04
2022-09-21T11:20:05.421Z,15.62
2022-09-21T11:25:14.695Z,15.94
2022-09-21T11:30:21.953Z,15.78
2022-09-21T11:35:30.184Z,15.74
2022-09-21T11:41:00.149Z,16.04
2022-09-21T11:46:07.958Z,16.58
2022-09-21T11:51:14.850Z,17.15
2022-09-21T11:56:22.395Z,17.25
2022-09-21T12:01:30.908Z,16.88
2022-09-21T12:06:38.525Z,16.65
2022-09-21T12:11:46.335Z,16.62
2022-09-21T12:16:54.061Z,16.64
2022-09-21T12:22:01.311Z,16.79
2022-09-21T12:27:09.117Z,17.04
2022-09-21T12:32:17.917Z,16.82
2022-09-21T12:37:25.375Z,16.82
2022-09-21T12:43:12.917Z,16.75
2022-09-21T12:48:21.395Z,16.65
2022-09-21T12:53:29.801Z,16.52
2022-09-21T12:58:38.778Z,16.82
2022-09-21T13:03:47.396Z,17.11
2022-09-21T13:09:02.792Z,17.23
2022-09-21T13:14:10.786Z,17.34
2022-09-21T13:19:17.530Z,17.14
2022-09-21T13:24:25.002Z,17.04
2022-09-21T13:29:33.005Z,16.92
2022-09-21T13:34:40.781Z,16.65
2022-09-21T13:39:48.108Z,16.39
2022-09-21T13:44:56.460Z,16.26
2022-09-21T13:50:03.135Z,15.92
2022-09-21T13:55:10.382Z,15.63
2022-09-21T14:00:18.531Z,16.01
2022-09-21T14:05:28.501Z,16.43
2022-09-21T14:10:36.347Z,16.76
2022-09-21T14:15:43.980Z,17.01
2022-09-21T14:20:52.669Z,17.2
2022-09-21T14:25:59.957Z,16.86
2022-09-21T14:31:07.129Z,16.41
2022-09-21T14:36:15.233Z,16.21
2022-09-21T14:41:23.552Z,16.18
2022-09-21T14:46:34.181Z,16.38
2022-09-21T14:51:42.902Z,16.86
2022-09-21T14:56:50.744Z,16.82
2022-09-21T15:02:04.036Z,16.57
2022-09-21T15:07:11.676Z,16.07
2022-09-21T15:12:19.212Z,15.66
2022-09-21T15:17:27.419Z,15.33
2022-09-21T15:22:35.579Z,15.0
2022-09-21T15:27:43.032Z,14.72
2022-09-21T15:32:50.379Z,14.62
2022-09-21T15:37:58.041Z,14.48
2022-09-21T15:43:05.907Z,14.28
2022-09-21T15:48:13.839Z,14.12
2022-09-21T15:53:21.469Z,13.9
2022-09-21T15:58:28.740Z,13.58
2022-09-21T16:03:36.320Z,13.24
2022-09-21T16:08:44.404Z,12.86
2022-09-21T16:13:52.303Z,12.48
2022-09-21T16:19:00.066Z,12.08
2022-09-21T16:24:07.366Z,11.75
2022-09-21T16:29:15.148Z,11.43
2022-09-21T16:34:22.987Z,11.19
2022-09-21T16:39:30.197Z,10.97
2022-09-21T16:44:37.376Z,10.76
2022-09-21T16:49:45.228Z,10.51
2022-09-21T16:54:52.277Z,10.22
2022-09-21T16:59:59.017Z,10.07
2022-09-21T17:05:07.681Z,9.92
2022-09-21T17:10:16.453Z,9.86
2022-09-21T17:15:24.319Z,9.72
2022-09-21T17:20:31.678Z,9.62
2022-09-21T17:25:39.596Z,9.5
2022-09-21T17:30:46.665Z,9.43
2022-09-21T17:35:55.547Z,9.43
2022-09-21T17:41:03.564Z,9.44
2022-09-21T17:46:10.829Z,9.43
2022-09-21T17:51:18.522Z,9.47
2022-09-21T17:56:26.549Z,9.53
2022-09-21T18:01:34.661Z,9.52
2022-09-21T18:06:42.184Z,9.44
2022-09-21T18:11:50.076Z,9.38
2022-09-21T18:16:57.896Z,9.4
2022-09-21T18:22:06.240Z,9.31
2022-09-21T18:27:13.996Z,9.1
2022-09-21T18:32:20.805Z,8.85
2022-09-21T18:37:27.951Z,8.57
2022-09-21T18:42:37.361Z,8.43
2022-09-21T18:47:44.335Z,8.38
2022-09-21T18:52:50.409Z,8.19
2022-09-21T18:57:58.775Z,7.9
2022-09-21T19:03:07.085Z,7.94
2022-09-21T19:08:15.885Z,7.94
2022-09-21T19:13:23.462Z,7.98
2022-09-21T19:18:30.662Z,7.94
2022-09-21T19:23:37.848Z,7.85
2022-09-21T19:28:45.109Z,7.96
2022-09-21T19:33:52.264Z,8.08
2022-09-21T19:38:59.567Z,8.1
2022-09-21T19:44:07.871Z,8.04
2022-09-21T19:49:16.155Z,7.92
2022-09-21T19:54:24.637Z,7.79
2022-09-21T19:59:33.224Z,7.72
2022-09-21T20:04:41.162Z,7.7
2022-09-21T20:11:20.841Z,7.68
2022-09-21T20:16:27.439Z,7.71
2022-09-21T20:21:35.768Z,7.68
2022-09-21T20:26:44.152Z,7.62
2022-09-21T20:31:51.966Z,7.62
2022-09-21T20:36:59.712Z,7.6
2022-09-21T20:42:07.549Z,7.54
2022-09-21T20:47:35.617Z,7.44
2022-09-21T20:52:42.472Z,7.34
2022-09-21T20:57:50.348Z,7.29
2022-09-21T21:02:57.943Z,7.25
2022-09-21T21:08:05.980Z,7.23
2022-09-21T21:13:13.443Z,7.2
2022-09-21T21:18:27.301Z,7.2
2022-09-21T21:23:35.306Z,7.14
2022-09-21T21:28:43.144Z,7.15
2022-09-21T21:33:50.990Z,7.1
2022-09-21T21:38:58.266Z,7.1
2022-09-21T21:44:06.135Z,7.06
2022-09-21T21:49:13.687Z,7.16
2022-09-21T21:54:21.698Z,7.26
2022-09-21T21:59:30.765Z,7.32
2022-09-21T22:04:38.881Z,7.36
2022-09-21T22:09:46.493Z,7.38
2022-09-21T22:14:54.870Z,7.42
2022-09-21T22:20:03.373Z,7.34
2022-09-21T22:25:10.925Z,7.27
2022-09-21T22:30:18.712Z,7.21
2022-09-21T22:35:26.335Z,7.16
2022-09-21T22:40:33.977Z,7.16
2022-09-21T22:45:40.737Z,7.17
2022-09-21T22:50:48.503Z,7.14
2022-09-21T22:55:57.093Z,7.04
2022-09-21T23:01:04.955Z,6.94
2022-09-21T23:06:18.751Z,6.83
2022-09-21T23:11:26.344Z,6.7
2022-09-21T23:16:33.518Z,6.56
2022-09-21T23:21:41.364Z,6.42
2022-09-21T23:26:48.612Z,6.54
2022-09-21T23:31:55.129Z,6.52
2022-09-21T23:37:02.338Z,6.5
2022-09-21T23:42:08.887Z,6.58
2022-09-21T23:47:16.128Z,6.67
2022-09-21T23:52:24.814Z,6.78
2022-09-21T23:57:33.063Z,6.86
